createdAt,value
2018-03-14T00:00:01.101Z,6.37
2018-03-14T00:02:27.346Z,5.70
2018-03-14T00:04:54.359Z,5.90
2018-03-14T00:07:20.599Z,6.03
2018-03-14T00:09:46.879Z,5.63
2018-03-14T00:12:13.114Z,6.33
2018-03-14T00:14:39.340Z,6.33
2018-03-14T00:17:05.583Z,6.10
2018-03-14T00:19:31.790Z,6.67
2018-03-14T00:21:58.056Z,6.93
2018-03-14T00:24:24.358Z,6.90
2018-03-14T00:26:50.597Z,6.70
2018-03-14T00:29:16.895Z,7.00
2018-03-14T00:31:43.121Z,7.00
2018-03-14T00:34:09.345Z,6.40
2018-03-14T00:36:35.594Z,6.10
2018-03-14T00:39:01.871Z,7.00
2018-03-14T00:41:28.105Z,6.20
2018-03-14T00:43:54.336Z,6.93
2018-03-14T00:46:20.561Z,7.13
2018-03-14T00:48:46.796Z,7.23
2018-03-14T00:51:12.993Z,6.70
2018-03-14T00:53:39.258Z,7.73
2018-03-14T00:56:06.264Z,7.47
2018-03-14T00:58:32.480Z,7.60
2018-03-14T01:00:58.681Z,6.27
2018-03-14T01:03:24.902Z,7.30
2018-03-14T01:05:52.229Z,7.30
2018-03-14T01:08:18.472Z,6.80
2018-03-14T01:10:45.445Z,8.00
2018-03-14T01:13:11.674Z,6.93
2018-03-14T01:15:37.883Z,8.10
2018-03-14T01:18:04.112Z,7.70
2018-03-14T01:20:31.076Z,7.30
2018-03-14T01:22:57.264Z,7.03
2018-03-14T01:25:23.464Z,7.83
2018-03-14T01:27:49.692Z,6.40
2018-03-14T01:30:15.948Z,7.30
2018-03-14T01:32:42.142Z,8.00
2018-03-14T01:35:08.333Z,7.93
2018-03-14T01:37:34.592Z,6.20
2018-03-14T01:40:00.826Z,7.70
2018-03-14T01:42:27.670Z,8.23
2018-03-14T01:44:53.889Z,6.63
2018-03-14T01:47:20.135Z,7.93
2018-03-14T01:49:46.351Z,7.80
2018-03-14T01:52:12.553Z,6.80
2018-03-14T01:54:38.788Z,8.27
2018-03-14T01:57:04.985Z,7.83
2018-03-14T01:59:31.935Z,7.87
2018-03-14T02:01:58.925Z,7.93
2018-03-14T02:04:25.186Z,7.50
2018-03-14T02:06:51.373Z,8.07
2018-03-14T02:09:17.596Z,8.43
2018-03-14T02:11:43.825Z,7.50
2018-03-14T02:14:10.075Z,6.97
2018-03-14T02:16:36.291Z,7.40
2018-03-14T02:19:02.517Z,8.20
2018-03-14T02:21:28.777Z,7.60
2018-03-14T02:23:54.987Z,8.17
2018-03-14T02:26:21.210Z,7.43
2018-03-14T02:28:47.429Z,8.00
2018-03-14T02:31:13.648Z,7.60
2018-03-14T02:33:39.877Z,7.83
2018-03-14T02:36:06.122Z,8.43
2018-03-14T02:38:32.343Z,7.00
2018-03-14T02:40:58.540Z,8.00
2018-03-14T02:43:24.753Z,7.17
2018-03-14T02:45:51.718Z,8.20
2018-03-14T02:48:17.954Z,8.50
2018-03-14T02:50:44.138Z,8.70
2018-03-14T02:53:10.378Z,8.50
2018-03-14T02:55:36.701Z,8.90
2018-03-14T02:58:02.897Z,9.53
2018-03-14T03:00:29.069Z,10.00
2018-03-14T03:02:56.014Z,8.67
2018-03-14T03:05:22.981Z,10.17
2018-03-14T03:07:49.195Z,10.27
2018-03-14T03:10:16.188Z,9.03
2018-03-14T03:12:42.423Z,8.43
2018-03-14T03:15:08.643Z,10.10
2018-03-14T03:17:34.853Z,8.73
2018-03-14T03:20:01.096Z,8.73
2018-03-14T03:22:27.272Z,8.67
2018-03-14T03:24:54.238Z,8.57
2018-03-14T03:27:20.476Z,9.17
2018-03-14T03:29:46.669Z,8.80
2018-03-14T03:32:13.646Z,9.10
2018-03-14T03:34:39.846Z,9.10
2018-03-14T03:37:06.800Z,8.70
2018-03-14T03:39:33.017Z,8.85
2018-03-14T03:41:59.999Z,8.93
2018-03-14T03:44:26.242Z,7.60
2018-03-14T03:46:52.445Z,8.27
2018-03-14T03:49:18.644Z,9.47
2018-03-14T03:51:45.615Z,7.20
2018-03-14T03:54:11.804Z,8.20
2018-03-14T03:56:38.003Z,7.63
2018-03-14T03:59:04.206Z,7.07
2018-03-14T04:01:30.439Z,8.00
2018-03-14T04:03:56.654Z,7.80
2018-03-14T04:06:22.885Z,6.77
2018-03-14T04:08:49.118Z,7.43
2018-03-14T04:11:15.358Z,7.13
2018-03-14T04:13:41.572Z,6.80
2018-03-14T04:16:07.766Z,6.70
2018-03-14T04:18:34.721Z,7.70
2018-03-14T04:21:01.743Z,6.80
2018-03-14T04:23:27.964Z,6.53
2018-03-14T04:25:54.167Z,6.90
2018-03-14T04:28:20.350Z,6.50
2018-03-14T04:30:47.362Z,6.90
2018-03-14T04:33:13.545Z,6.67
2018-03-14T04:35:39.794Z,6.90
2018-03-14T04:38:06.019Z,6.73
2018-03-14T04:40:32.228Z,7.20
2018-03-14T04:42:58.439Z,6.70
2018-03-14T04:45:25.339Z,6.77
2018-03-14T04:47:51.537Z,6.63
2018-03-14T04:50:17.720Z,6.80
2018-03-14T04:52:43.919Z,7.40
2018-03-14T04:55:10.145Z,6.37
2018-03-14T04:57:36.360Z,7.17
2018-03-14T05:00:02.623Z,7.27
2018-03-14T05:02:28.849Z,6.40
2018-03-14T05:04:55.080Z,7.00
2018-03-14T05:07:22.080Z,7.20
2018-03-14T05:09:48.274Z,7.73
2018-03-14T05:12:15.230Z,7.37
2018-03-14T05:14:41.445Z,8.03
2018-03-14T05:17:08.375Z,7.20
2018-03-14T05:19:34.584Z,7.00
2018-03-14T05:22:00.796Z,7.33
2018-03-14T05:24:27.017Z,7.27
2018-03-14T05:26:53.228Z,7.30
2018-03-14T05:29:19.429Z,6.53
2018-03-14T05:31:46.381Z,7.90
2018-03-14T05:34:17.375Z,5.87
2018-03-14T05:36:43.609Z,6.97
2018-03-14T05:39:09.812Z,6.70
2018-03-14T05:41:36.029Z,6.70
2018-03-14T05:44:02.261Z,7.53
2018-03-14T05:46:28.490Z,6.67
2018-03-14T05:48:54.679Z,8.97
2018-03-14T05:51:21.636Z,9.30
2018-03-14T05:53:47.864Z,10.43
2018-03-14T05:56:14.090Z,10.13
2018-03-14T05:58:40.302Z,11.70
2018-03-14T06:01:07.279Z,12.73
2018-03-14T06:03:33.507Z,13.23
2018-03-14T06:06:06.396Z,11.68
2018-03-14T06:08:32.625Z,11.07
2018-03-14T06:10:58.837Z,10.60
2018-03-14T06:13:25.065Z,10.27
2018-03-14T06:15:51.319Z,8.30
2018-03-14T06:18:17.561Z,7.30
2018-03-14T06:20:43.796Z,9.10
2018-03-14T06:23:10.016Z,8.68
2018-03-14T06:25:36.262Z,9.27
2018-03-14T06:28:02.498Z,8.98
2018-03-14T06:30:28.696Z,8.50
2018-03-14T06:32:54.985Z,8.45
2018-03-14T06:35:21.225Z,7.47
2018-03-14T06:37:47.501Z,7.83
2018-03-14T06:40:13.722Z,9.10
2018-03-14T06:43:00.072Z,10.68
2018-03-14T06:45:26.282Z,10.35
2018-03-14T06:47:53.254Z,11.90
2018-03-14T06:50:19.521Z,12.90
2018-03-14T06:52:45.730Z,13.20
2018-03-14T06:55:11.982Z,12.20
2018-03-14T06:57:38.164Z,12.70
2018-03-14T07:00:16.621Z,12.52
2018-03-14T07:02:55.251Z,13.93
2018-03-14T07:05:33.903Z,13.07
2018-03-14T07:08:00.908Z,13.70
2018-03-14T07:10:27.161Z,14.13
2018-03-14T07:12:53.396Z,14.53
2018-03-14T07:15:20.332Z,14.10
2018-03-14T07:17:46.542Z,15.15
2018-03-14T07:20:12.760Z,13.27
2018-03-14T07:22:38.942Z,13.27
2018-03-14T07:25:05.247Z,12.60
2018-03-14T07:27:32.238Z,12.77
2018-03-14T07:29:58.439Z,15.30
2018-03-14T07:32:24.697Z,14.98
2018-03-14T07:34:50.918Z,15.73
2018-03-14T07:37:17.139Z,13.57
2018-03-14T07:39:43.363Z,13.57
2018-03-14T07:42:09.675Z,15.20
2018-03-14T07:44:36.689Z,13.63
2018-03-14T07:47:02.912Z,15.03
2018-03-14T07:49:29.155Z,16.00
2018-03-14T07:51:55.360Z,15.83
2018-03-14T07:54:21.559Z,11.80
2018-03-14T07:56:47.783Z,12.03
2018-03-14T07:59:13.973Z,12.20
2018-03-14T08:01:40.225Z,9.87
2018-03-14T08:04:06.441Z,9.03
2018-03-14T08:06:33.391Z,9.10
2018-03-14T08:09:00.340Z,8.53
2018-03-14T08:11:27.308Z,9.80
2018-03-14T08:13:53.649Z,7.73
2018-03-14T08:16:19.795Z,6.70
2018-03-14T08:18:46.000Z,7.07
2018-03-14T08:21:12.247Z,7.20
2018-03-14T08:23:38.510Z,6.83
2018-03-14T08:26:05.475Z,7.73
2018-03-14T08:28:31.673Z,7.10
2018-03-14T08:30:57.890Z,6.07
2018-03-14T08:33:24.116Z,4.53
2018-03-14T08:35:50.358Z,5.57
2018-03-14T08:38:16.605Z,5.40
2018-03-14T08:40:43.561Z,4.53
2018-03-14T08:43:09.777Z,4.80
2018-03-14T08:45:36.728Z,5.50
2018-03-14T08:48:03.652Z,5.50
2018-03-14T08:50:29.897Z,7.77
2018-03-14T08:52:56.824Z,7.50
2018-03-14T08:55:23.008Z,8.00
2018-03-14T08:57:49.216Z,7.27
2018-03-14T09:00:15.416Z,7.77
2018-03-14T09:02:42.378Z,8.33
2018-03-14T09:05:08.573Z,7.60
2018-03-14T09:07:34.758Z,7.03
2018-03-14T09:10:00.965Z,6.17
2018-03-14T09:12:27.175Z,7.83
2018-03-14T09:14:54.131Z,7.87
2018-03-14T09:17:21.040Z,5.90
2018-03-14T09:19:47.232Z,5.27
2018-03-14T09:22:13.476Z,6.00
2018-03-14T09:24:39.669Z,2.90
2018-03-14T09:27:05.892Z,2.40
2018-03-14T09:29:32.130Z,3.60
2018-03-14T09:31:58.369Z,3.27
2018-03-14T09:34:24.597Z,3.17
2018-03-14T09:36:50.776Z,5.00
2018-03-14T09:39:17.706Z,6.10
2018-03-14T09:41:43.892Z,5.10
2018-03-14T09:44:10.113Z,4.70
2018-03-14T09:46:36.322Z,5.00
2018-03-14T09:49:03.253Z,6.00
2018-03-14T09:51:30.253Z,6.70
2018-03-14T09:53:56.432Z,7.30
2018-03-14T09:56:23.358Z,5.90
2018-03-14T09:58:49.563Z,4.47
2018-03-14T10:01:15.776Z,3.13
2018-03-14T10:03:42.010Z,2.87
2018-03-14T10:06:08.188Z,3.13
2018-03-14T10:08:35.139Z,3.97
2018-03-14T10:11:02.060Z,6.50
2018-03-14T10:13:28.257Z,6.10
2018-03-14T10:15:54.456Z,6.30
2018-03-14T10:18:31.664Z,5.10
2018-03-14T10:20:57.877Z,5.87
2018-03-14T10:23:24.124Z,6.80
2018-03-14T10:25:50.480Z,5.83
2018-03-14T10:28:16.544Z,6.47
2018-03-14T10:30:42.770Z,6.20
2018-03-14T10:33:08.983Z,6.40
2018-03-14T10:35:35.924Z,6.03
2018-03-14T10:38:02.878Z,5.67
2018-03-14T10:40:29.094Z,4.80
2018-03-14T10:42:56.018Z,6.30
2018-03-14T10:45:22.274Z,6.00
2018-03-14T10:47:49.258Z,5.90
2018-03-14T10:50:15.476Z,5.70
2018-03-14T10:52:41.685Z,5.70
2018-03-14T10:55:07.878Z,5.60
2018-03-14T10:57:34.124Z,6.13
2018-03-14T11:00:01.060Z,5.30
2018-03-14T11:02:30.793Z,5.80
2018-03-14T11:04:57.024Z,4.90
2018-03-14T11:07:23.273Z,6.20
2018-03-14T11:09:49.509Z,5.60
2018-03-14T11:12:16.581Z,5.57
2018-03-14T11:14:42.756Z,5.23
2018-03-14T11:17:09.020Z,5.07
2018-03-14T11:19:35.230Z,5.23
2018-03-14T11:22:01.462Z,5.70
2018-03-14T11:24:27.698Z,5.27
2018-03-14T11:26:53.914Z,5.53
2018-03-14T11:29:20.135Z,5.97
2018-03-14T11:31:46.351Z,5.33
2018-03-14T11:34:12.568Z,6.50
2018-03-14T11:36:39.510Z,7.23
2018-03-14T11:41:59.040Z,6.33
2018-03-14T11:44:25.223Z,6.60
2018-03-14T11:46:52.190Z,6.87
2018-03-14T11:49:18.398Z,6.70
2018-03-14T11:51:45.388Z,6.60
2018-03-14T11:54:11.607Z,6.10
2018-03-14T11:56:37.818Z,6.70
2018-03-14T11:59:04.012Z,7.07
2018-03-14T12:01:30.250Z,5.70
2018-03-14T12:03:57.171Z,6.77
2018-03-14T12:06:23.436Z,5.53
2018-03-14T12:08:50.372Z,5.67
2018-03-14T12:11:17.354Z,5.00
2018-03-14T12:13:43.581Z,5.00
2018-03-14T12:16:09.830Z,5.80
2018-03-14T12:18:36.127Z,4.80
2018-03-14T12:21:03.101Z,4.90
2018-03-14T12:23:29.359Z,5.80
2018-03-14T12:25:55.615Z,6.10
2018-03-14T12:28:22.555Z,4.87
2018-03-14T12:30:49.636Z,5.30
2018-03-14T12:33:16.996Z,5.13
2018-03-14T12:35:43.184Z,5.30
2018-03-14T12:38:10.167Z,4.63
2018-03-14T12:40:36.346Z,4.43
2018-03-14T12:43:02.562Z,4.57
2018-03-14T12:45:28.780Z,4.63
2018-03-14T12:47:56.043Z,4.03
2018-03-14T12:50:22.250Z,3.43
2018-03-14T12:52:48.452Z,4.83
2018-03-14T12:55:14.709Z,3.50
2018-03-14T12:57:40.925Z,4.17
2018-03-14T13:00:07.172Z,4.10
2018-03-14T13:02:33.381Z,4.63
2018-03-14T13:04:59.670Z,3.50
2018-03-14T13:07:25.895Z,4.17
2018-03-14T13:09:52.885Z,4.07
2018-03-14T13:12:19.089Z,3.73
2018-03-14T13:14:45.329Z,3.70
2018-03-14T13:17:11.573Z,3.93
2018-03-14T13:19:37.755Z,3.50
2018-03-14T13:22:03.968Z,3.60
2018-03-14T13:24:30.946Z,3.10
2018-03-14T13:26:57.146Z,3.83
2018-03-14T13:29:24.083Z,3.60
2018-03-14T13:31:50.263Z,3.33
2018-03-14T13:34:16.482Z,2.77
2018-03-14T13:36:42.657Z,3.40
2018-03-14T13:39:08.923Z,3.70
2018-03-14T13:41:35.180Z,3.60
2018-03-14T13:44:01.407Z,3.77
2018-03-14T13:46:27.665Z,3.40
2018-03-14T13:48:53.841Z,4.07
2018-03-14T13:51:20.092Z,2.70
2018-03-14T13:53:46.284Z,3.20
2018-03-14T13:56:12.533Z,3.97
2018-03-14T13:58:38.790Z,4.47
2018-03-14T14:01:05.024Z,3.30
2018-03-14T14:03:31.249Z,3.60
2018-03-14T14:05:57.476Z,4.23
2018-03-14T14:08:23.701Z,3.40
2018-03-14T14:10:49.920Z,4.00
2018-03-14T14:13:18.253Z,3.73
2018-03-14T14:15:44.443Z,3.70
2018-03-14T14:18:10.663Z,3.80
2018-03-14T14:20:36.918Z,3.20
2018-03-14T14:23:03.965Z,3.30
2018-03-14T14:25:30.901Z,4.17
2018-03-14T14:27:57.137Z,4.20
2018-03-14T14:30:23.366Z,3.70
2018-03-14T14:32:49.529Z,3.60
2018-03-14T14:35:15.757Z,3.50
2018-03-14T14:37:42.046Z,4.27
2018-03-14T14:40:08.270Z,4.13
2018-03-14T14:42:34.488Z,3.27
2018-03-14T14:45:00.703Z,3.53
2018-03-14T14:47:26.917Z,3.37
2018-03-14T14:49:53.129Z,3.27
2018-03-14T14:52:19.336Z,3.40
2018-03-14T14:54:45.531Z,3.87
2018-03-14T14:57:11.759Z,3.40
2018-03-14T14:59:37.965Z,3.43
2018-03-14T15:02:04.196Z,3.33
2018-03-14T15:04:30.450Z,3.77
2018-03-14T15:06:56.656Z,3.20
2018-03-14T15:09:22.892Z,3.27
2018-03-14T15:11:49.117Z,2.90
2018-03-14T15:14:15.312Z,3.33
2018-03-14T15:16:41.517Z,2.87
2018-03-14T15:19:07.728Z,2.90
2018-03-14T15:21:33.986Z,2.80
2018-03-14T15:24:01.562Z,2.70
2018-03-14T15:26:27.801Z,3.03
2018-03-14T15:28:53.985Z,2.93
2018-03-14T15:31:20.213Z,2.53
2018-03-14T15:33:46.436Z,2.40
2018-03-14T15:36:13.390Z,2.50
2018-03-14T15:38:39.672Z,2.73
2018-03-14T15:41:05.896Z,3.20
2018-03-14T15:43:32.147Z,2.60
2018-03-14T15:45:58.368Z,2.83
2018-03-14T15:48:24.550Z,2.50
2018-03-14T15:50:50.790Z,2.00
2018-03-14T15:53:16.988Z,2.20
2018-03-14T15:55:43.210Z,2.47
2018-03-14T15:58:09.425Z,2.40
2018-03-14T16:00:36.374Z,2.30
2018-03-14T16:03:02.631Z,2.10
2018-03-14T16:05:28.834Z,2.40
2018-03-14T16:07:55.771Z,2.40
2018-03-14T16:10:22.726Z,2.23
2018-03-14T16:12:49.709Z,2.27
2018-03-14T16:15:15.921Z,2.30
2018-03-14T16:17:42.116Z,2.40
2018-03-14T16:20:09.108Z,2.00
2018-03-14T16:22:35.337Z,2.27
2018-03-14T16:25:01.575Z,2.27
2018-03-14T16:27:27.786Z,2.30
2018-03-14T16:29:54.001Z,2.10
2018-03-14T16:32:20.302Z,2.63
2018-03-14T16:34:46.511Z,2.90
2018-03-14T16:37:13.479Z,2.10
2018-03-14T16:39:40.431Z,2.10
2018-03-14T16:42:06.634Z,2.50
2018-03-14T16:44:34.174Z,2.50
2018-03-14T16:47:00.405Z,2.80
2018-03-14T16:49:26.604Z,2.57
2018-03-14T16:51:52.872Z,2.47
2018-03-14T16:54:19.100Z,2.67
2018-03-14T16:56:45.498Z,2.93
2018-03-14T16:59:11.692Z,3.13
2018-03-14T17:01:38.608Z,3.10
2018-03-14T17:04:04.833Z,3.07
2018-03-14T17:06:31.009Z,3.20
2018-03-14T17:08:57.310Z,3.73
2018-03-14T17:11:24.232Z,4.20
2018-03-14T17:13:50.466Z,3.37
2018-03-14T17:16:16.678Z,4.00
2018-03-14T17:18:42.942Z,3.60
2018-03-14T17:21:09.942Z,3.23
2018-03-14T17:23:36.129Z,3.63
2018-03-14T17:26:02.448Z,3.10
2018-03-14T17:28:28.632Z,4.53
2018-03-14T17:30:54.870Z,5.97
2018-03-14T17:33:21.108Z,5.00
2018-03-14T17:35:47.292Z,4.10
2018-03-14T17:38:13.517Z,6.40
2018-03-14T17:40:39.732Z,8.07
2018-03-14T17:43:05.973Z,8.30
2018-03-14T17:45:32.148Z,6.83
2018-03-14T17:47:59.117Z,5.60
2018-03-14T17:50:26.090Z,5.40
2018-03-14T17:52:52.318Z,3.43
2018-03-14T17:55:18.570Z,3.63
2018-03-14T17:57:44.751Z,3.17
2018-03-14T18:00:10.937Z,3.50
2018-03-14T18:02:37.183Z,3.10
2018-03-14T18:05:04.191Z,3.30
2018-03-14T18:07:30.393Z,4.30
2018-03-14T18:09:56.605Z,5.37
2018-03-14T18:12:22.826Z,7.23
2018-03-14T18:14:49.788Z,5.50
2018-03-14T18:17:16.012Z,5.20
2018-03-14T18:19:42.245Z,4.27
2018-03-14T18:22:08.494Z,4.57
2018-03-14T18:24:34.707Z,4.90
2018-03-14T18:27:00.938Z,4.20
2018-03-14T18:29:27.169Z,4.03
2018-03-14T18:31:53.335Z,4.37
2018-03-14T18:34:19.539Z,3.23
2018-03-14T18:36:45.766Z,5.67
2018-03-14T18:39:11.969Z,7.03
2018-03-14T18:41:38.176Z,5.47
2018-03-14T18:44:04.379Z,4.93
2018-03-14T18:46:30.540Z,5.87
2018-03-14T18:48:56.718Z,8.60
2018-03-14T18:51:22.937Z,7.87
2018-03-14T18:53:49.116Z,9.67
2018-03-14T18:56:16.048Z,11.00
2018-03-14T18:58:43.001Z,11.00
2018-03-14T19:01:10.043Z,10.80
2018-03-14T19:03:37.068Z,10.03
2018-03-14T19:06:03.302Z,8.27
2018-03-14T19:08:29.589Z,7.97
2018-03-14T19:10:55.765Z,10.80
2018-03-14T19:13:21.976Z,8.80
2018-03-14T19:15:48.225Z,6.97
2018-03-14T19:18:15.208Z,6.27
2018-03-14T19:20:41.398Z,8.53
2018-03-14T19:23:07.567Z,11.03
2018-03-14T19:25:33.824Z,12.00
2018-03-14T19:28:00.074Z,16.40
2018-03-14T19:30:27.032Z,14.40
2018-03-14T19:32:53.977Z,14.60
2018-03-14T19:35:20.871Z,14.57
2018-03-14T19:37:47.048Z,10.93
2018-03-14T19:40:13.337Z,10.60
2018-03-14T19:42:39.591Z,9.10
2018-03-14T19:45:05.790Z,7.10
2018-03-14T19:47:32.034Z,5.13
2018-03-14T19:49:58.267Z,6.40
2018-03-14T19:52:24.513Z,6.67
2018-03-14T19:54:51.458Z,5.63
2018-03-14T19:57:18.360Z,7.53
2018-03-14T19:59:44.590Z,5.97
2018-03-14T20:02:10.752Z,6.60
2018-03-14T20:04:36.961Z,10.40
2018-03-14T20:07:03.180Z,10.23
2018-03-14T20:09:29.423Z,8.40
2018-03-14T20:11:55.640Z,10.37
2018-03-14T20:14:21.866Z,10.10
2018-03-14T20:16:48.077Z,9.97
2018-03-14T20:19:14.327Z,9.30
2018-03-14T20:21:40.557Z,10.10
2018-03-14T20:24:06.903Z,9.00
2018-03-14T20:26:33.227Z,8.07
2018-03-14T20:28:59.449Z,7.70
2018-03-14T20:31:25.646Z,6.60
2018-03-14T20:33:51.902Z,7.43
2018-03-14T20:36:18.060Z,7.43
2018-03-14T20:38:45.059Z,9.00
2018-03-14T20:41:11.281Z,9.87
2018-03-14T20:43:37.475Z,9.10
2018-03-14T20:46:03.711Z,9.50
2018-03-14T20:48:29.956Z,9.30
2018-03-14T20:50:57.837Z,10.10
2018-03-14T20:53:24.992Z,9.33
2018-03-14T20:55:51.252Z,9.60
2018-03-14T20:58:17.553Z,9.73
2018-03-14T21:00:43.804Z,9.50
2018-03-14T21:03:10.064Z,9.80
2018-03-14T21:05:36.312Z,8.50
2018-03-14T21:08:02.517Z,8.90
2018-03-14T21:10:28.702Z,8.53
2018-03-14T21:12:54.952Z,8.97
2018-03-14T21:15:21.959Z,10.27
2018-03-14T21:17:48.187Z,9.40
2018-03-14T21:20:14.458Z,8.20
2018-03-14T21:22:40.630Z,8.63
2018-03-14T21:25:06.832Z,8.03
2018-03-14T21:27:33.099Z,8.73
2018-03-14T21:29:59.358Z,7.70
2018-03-14T21:32:25.586Z,7.80
2018-03-14T21:34:51.776Z,6.90
2018-03-14T21:37:18.034Z,11.13
2018-03-14T21:39:44.217Z,8.33
2018-03-14T21:42:10.630Z,8.30
2018-03-14T21:44:36.847Z,8.73
2018-03-14T21:47:03.870Z,7.90
2018-03-14T21:49:30.781Z,7.97
2018-03-14T21:51:57.019Z,11.70
2018-03-14T21:54:23.269Z,9.03
2018-03-14T21:56:49.448Z,11.40
2018-03-14T21:59:15.653Z,10.73
2018-03-14T22:01:42.669Z,11.70
2018-03-14T22:04:08.882Z,10.63
2018-03-14T22:06:35.072Z,9.03
2018-03-14T22:09:01.316Z,9.03
2018-03-14T22:11:27.576Z,8.47
2018-03-14T22:13:53.844Z,8.07
2018-03-14T22:16:20.776Z,9.30
2018-03-14T22:18:47.765Z,7.83
2018-03-14T22:21:13.972Z,7.77
2018-03-14T22:23:40.201Z,8.40
2018-03-14T22:26:06.409Z,8.47
2018-03-14T22:28:33.385Z,6.80
2018-03-14T22:30:59.650Z,6.67
2018-03-14T22:33:25.840Z,6.63
2018-03-14T22:35:52.088Z,6.20
2018-03-14T22:38:18.288Z,6.60
2018-03-14T22:40:44.503Z,6.73
2018-03-14T22:43:10.680Z,7.13
2018-03-14T22:45:36.905Z,6.23
2018-03-14T22:48:03.096Z,6.57
2018-03-14T22:50:29.352Z,5.30
2018-03-14T22:52:55.588Z,6.30
2018-03-14T22:55:21.785Z,6.20
2018-03-14T22:57:48.100Z,5.80
2018-03-14T23:00:14.348Z,7.00
2018-03-14T23:02:40.543Z,7.00
2018-03-14T23:05:06.774Z,7.50
2018-03-14T23:07:33.033Z,6.10
2018-03-14T23:10:00.331Z,7.00
2018-03-14T23:12:26.574Z,6.20
2018-03-14T23:14:52.803Z,6.60
2018-03-14T23:17:19.753Z,5.90
2018-03-14T23:19:46.716Z,6.97
2018-03-14T23:22:12.913Z,6.73
2018-03-14T23:24:39.889Z,7.47
2018-03-14T23:27:06.095Z,7.83
2018-03-14T23:29:33.121Z,6.90
2018-03-14T23:31:59.364Z,7.70
2018-03-14T23:34:25.600Z,8.53
2018-03-14T23:36:52.572Z,7.53
2018-03-14T23:39:18.807Z,7.33
2018-03-14T23:41:45.058Z,7.07
2018-03-14T23:44:11.280Z,7.00
2018-03-14T23:46:37.535Z,6.73
2018-03-14T23:49:03.778Z,5.80
2018-03-14T23:51:29.982Z,7.27
2018-03-14T23:53:56.162Z,6.70
2018-03-14T23:56:22.432Z,7.00
2018-03-14T23:58:48.681Z,6.60
